Time;durP1;ratioP1;P1;durP2;ratioP2;P2;SDS_P1;SDS_P2;PMS_P1;PMS_P2;Temp;Humidity;BMP_temperature;BMP_pressure;BME280_temperature;BME280_humidity;BME280_pressure;Samples;Min_cycle;Max_cycle;Signal;HPM_P1;HPM_P2
2021/07/30 00:01:50;;;;;;;;;13.00;13.00;;;;;;;;3571758;39;111962;-80
2021/07/30 00:04:17;;;;;;;;;12.00;12.00;;;;;;;;3569668;39;113316;-80
2021/07/30 00:06:43;;;;;;;;;14.33;14.00;;;;;;;;3573048;39;112166;-80
2021/07/30 00:09:11;;;;;;;;;15.00;14.00;;;;;;;;3569262;39;113277;-80
2021/07/30 00:11:39;;;;;;;;;14.00;13.67;;;;;;;;3570695;39;114269;-80
2021/07/30 00:14:06;;;;;;;;;13.33;12.67;;;;;;;;3569208;39;111815;-79
2021/07/30 00:16:33;;;;;;;;;15.67;13.67;;;;;;;;3570752;39;113673;-80
2021/07/30 00:18:59;;;;;;;;;14.33;14.00;;;;;;;;3568330;39;114041;-80
2021/07/30 00:21:26;;;;;;;;;13.00;13.00;;;;;;;;3570098;39;111838;-80
2021/07/30 00:23:52;;;;;;;;;15.00;13.00;;;;;;;;3569634;39;113356;-80
2021/07/30 00:26:19;;;;;;;;;16.33;15.33;;;;;;;;3571853;39;112999;-79
2021/07/30 00:28:47;;;;;;;;;15.67;15.00;;;;;;;;3570388;39;113361;-79
2021/07/30 00:31:13;;;;;;;;;14.67;13.33;;;;;;;;3568856;39;113866;-80
2021/07/30 00:33:40;;;;;;;;;15.67;14.00;;;;;;;;3570743;39;111777;-79
2021/07/30 00:36:06;;;;;;;;;15.25;14.50;;;;;;;;3569114;39;113416;-79
2021/07/30 00:38:33;;;;;;;;;13.67;13.67;;;;;;;;3570322;39;114321;-79
2021/07/30 00:41:00;;;;;;;;;13.33;12.33;;;;;;;;3569298;39;112012;-80
2021/07/30 00:43:26;;;;;;;;;12.00;12.00;;;;;;;;3570350;39;113179;-80
2021/07/30 00:45:56;;;;;;;;;13.00;13.00;;;;;;;;3569213;39;113842;-80
2021/07/30 00:48:23;;;;;;;;;13.67;13.00;;;;;;;;3572570;39;112155;-82
2021/07/30 00:50:50;;;;;;;;;13.33;13.33;;;;;;;;3569449;39;113981;-81
2021/07/30 00:53:17;;;;;;;;;12.00;12.00;;;;;;;;3569375;39;111917;-80
2021/07/30 00:55:44;;;;;;;;;13.00;13.00;;;;;;;;3570081;39;113049;-81
2021/07/30 00:58:11;;;;;;;;;14.67;13.67;;;;;;;;3568483;39;113843;-80
2021/07/30 01:00:38;;;;;;;;;17.00;15.00;;;;;;;;3570814;39;112254;-80
2021/07/30 01:03:06;;;;;;;;;13.50;12.00;;;;;;;;3569080;39;113206;-81
2021/07/30 01:05:33;;;;;;;;;14.67;12.33;;;;;;;;3566367;39;114418;-83
2021/07/30 01:08:00;;;;;;;;;12.00;10.67;;;;;;;;3571254;39;112028;-82
2021/07/30 01:10:26;;;;;;;;;10.33;9.00;;;;;;;;3572316;39;113374;-81
2021/07/30 01:12:53;;;;;;;;;14.67;14.00;;;;;;;;3569494;39;112047;-82
2021/07/30 01:15:20;;;;;;;;;14.00;12.67;;;;;;;;3569477;39;113208;-82
2021/07/30 01:17:47;;;;;;;;;15.75;15.75;;;;;;;;3569497;39;114193;-81
2021/07/30 01:20:15;;;;;;;;;12.67;11.00;;;;;;;;3568921;39;111828;-81
2021/07/30 01:22:49;;;;;;;;;14.67;12.67;;;;;;;;3570454;39;113234;-81
2021/07/30 01:25:15;;;;;;;;;11.00;10.00;;;;;;;;3568668;39;114155;-81
2021/07/30 01:27:42;;;;;;;;;13.67;13.00;;;;;;;;3570702;39;111572;-80
2021/07/30 01:30:09;;;;;;;;;16.25;14.50;;;;;;;;3570340;39;113222;-80
2021/07/30 01:32:35;;;;;;;;;14.33;13.33;;;;;;;;3570791;39;113922;-81
2021/07/30 01:35:03;;;;;;;;;16.00;16.00;;;;;;;;3570600;39;113421;-81
2021/07/30 01:37:29;;;;;;;;;16.33;12.67;;;;;;;;3568330;39;113860;-80
2021/07/30 01:39:57;;;;;;;;;13.25;12.75;;;;;;;;3568697;39;112400;-80
2021/07/30 01:42:24;;;;;;;;;14.33;14.33;;;;;;;;3568439;39;113229;-80
2021/07/30 01:44:51;;;;;;;;;16.25;13.50;;;;;;;;3569092;39;113940;-79
2021/07/30 01:47:19;;;;;;;;;14.75;12.75;;;;;;;;3569281;39;111837;-79
2021/07/30 01:49:46;;;;;;;;;14.00;12.33;;;;;;;;3569078;39;113116;-79
2021/07/30 01:52:13;;;;;;;;;12.00;11.00;;;;;;;;3569236;39;114315;-80
2021/07/30 01:54:39;;;;;;;;;17.50;16.00;;;;;;;;3571134;39;112126;-79
2021/07/30 01:57:07;;;;;;;;;17.75;14.75;;;;;;;;3569538;39;113976;-80
2021/07/30 01:59:34;;;;;;;;;17.00;15.00;;;;;;;;3570208;39;111979;-80
2021/07/30 02:02:01;;;;;;;;;13.00;12.33;;;;;;;;3568422;39;113392;-79
2021/07/30 02:04:27;;;;;;;;;13.00;12.00;;;;;;;;3569994;39;113864;-81
2021/07/30 02:06:54;;;;;;;;;16.50;15.00;;;;;;;;3569503;39;111864;-81
2021/07/30 02:09:20;;;;;;;;;17.00;14.25;;;;;;;;3569075;39;113618;-80
2021/07/30 02:11:50;;;;;;;;;11.00;11.00;;;;;;;;3568582;39;114459;-81
2021/07/30 02:14:18;;;;;;;;;14.00;13.25;;;;;;;;3571790;39;111773;-82
2021/07/30 02:16:45;;;;;;;;;13.00;12.50;;;;;;;;3568426;39;114778;-81
2021/07/30 02:19:11;;;;;;;;;16.25;13.50;;;;;;;;3569631;39;111861;-82
2021/07/30 02:21:38;;;;;;;;;13.00;13.00;;;;;;;;3568679;39;113807;-80
2021/07/30 02:24:05;;;;;;;;;13.50;12.00;;;;;;;;3569616;39;113742;-80
2021/07/30 02:26:32;;;;;;;;;14.00;11.50;;;;;;;;3568427;39;112150;-80
2021/07/30 02:28:58;;;;;;;;;15.00;13.00;;;;;;;;3569844;39;113180;-80
2021/07/30 02:31:26;;;;;;;;;16.00;14.00;;;;;;;;3568174;39;114519;-80
2021/07/30 02:33:53;;;;;;;;;13.75;13.75;;;;;;;;3569244;39;112027;-82
2021/07/30 02:36:20;;;;;;;;;14.50;13.50;;;;;;;;3571921;39;113695;-83
2021/07/30 02:38:46;;;;;;;;;14.50;14.00;;;;;;;;3569175;39;111780;-82
2021/07/30 02:41:13;;;;;;;;;18.50;14.25;;;;;;;;3568717;39;113126;-79
2021/07/30 02:43:40;;;;;;;;;13.75;13.00;;;;;;;;3570551;39;114202;-78
2021/07/30 02:46:07;;;;;;;;;14.50;12.50;;;;;;;;3569611;39;112234;-79
2021/07/30 02:48:35;;;;;;;;;14.00;12.75;;;;;;;;3571253;39;113489;-79
2021/07/30 02:51:02;;;;;;;;;12.50;12.00;;;;;;;;3569116;39;113745;-79
2021/07/30 02:53:29;;;;;;;;;12.00;11.00;;;;;;;;3571602;39;112203;-78
2021/07/30 02:55:56;;;;;;;;;12.00;12.00;;;;;;;;3570964;39;115548;-80
2021/07/30 02:58:22;;;;;;;;;12.25;12.00;;;;;;;;3572252;39;114250;-80
2021/07/30 03:00:49;;;;;;;;;13.00;13.00;;;;;;;;3570650;39;113317;-81
2021/07/30 03:03:15;;;;;;;;;13.50;13.00;;;;;;;;3570200;39;114034;-81
2021/07/30 03:05:43;;;;;;;;;13.75;13.00;;;;;;;;3569797;39;111862;-81
2021/07/30 03:08:10;;;;;;;;;14.00;14.00;;;;;;;;3571095;39;113652;-82
2021/07/30 03:10:36;;;;;;;;;12.50;12.00;;;;;;;;3568903;39;114331;-82
2021/07/30 03:13:03;;;;;;;;;11.75;11.75;;;;;;;;3571312;39;112951;-81
2021/07/30 03:15:30;;;;;;;;;15.00;13.25;;;;;;;;3571193;39;113337;-81
2021/07/30 03:17:56;;;;;;;;;14.25;13.25;;;;;;;;3569167;39;113863;-81
2021/07/30 03:20:23;;;;;;;;;13.00;12.00;;;;;;;;3571809;39;111978;-80
2021/07/30 03:22:51;;;;;;;;;14.75;13.50;;;;;;;;3569808;39;114316;-81
2021/07/30 03:25:17;;;;;;;;;14.50;12.25;;;;;;;;3570955;39;111923;-81
2021/07/30 03:27:44;;;;;;;;;14.00;12.75;;;;;;;;3570538;39;113658;-80
2021/07/30 03:30:11;;;;;;;;;13.00;11.25;;;;;;;;3570868;39;114353;-81
2021/07/30 03:32:38;;;;;;;;;15.00;13.25;;;;;;;;3569323;39;111891;-81
2021/07/30 03:35:04;;;;;;;;;12.25;11.25;;;;;;;;3570950;39;113801;-81
2021/07/30 03:37:31;;;;;;;;;14.00;12.75;;;;;;;;3570537;39;113871;-81
2021/07/30 03:39:59;;;;;;;;;11.00;11.00;;;;;;;;3569432;39;112001;-81
2021/07/30 03:42:25;;;;;;;;;16.00;12.25;;;;;;;;3572889;39;113368;-83
2021/07/30 03:44:52;;;;;;;;;14.00;13.00;;;;;;;;3570015;39;111903;-83
2021/07/30 03:47:19;;;;;;;;;14.50;13.50;;;;;;;;3570221;39;113327;-83
2021/07/30 03:49:45;;;;;;;;;14.00;13.75;;;;;;;;3569801;39;114022;-82
2021/07/30 03:52:12;;;;;;;;;13.00;13.00;;;;;;;;3569333;39;112171;-82
2021/07/30 03:54:38;;;;;;;;;12.50;12.50;;;;;;;;3570809;39;113794;-82
2021/07/30 03:57:06;;;;;;;;;14.50;14.50;;;;;;;;3568897;39;114494;-82
2021/07/30 03:59:33;;;;;;;;;11.00;11.00;;;;;;;;3569734;39;111922;-83
2021/07/30 04:01:59;;;;;;;;;14.50;12.25;;;;;;;;3571526;39;113373;-83
2021/07/30 04:04:26;;;;;;;;;12.50;11.75;;;;;;;;3571926;39;113834;-83
2021/07/30 04:06:53;;;;;;;;;13.00;12.00;;;;;;;;3570349;39;113209;-81
2021/07/30 04:09:21;;;;;;;;;11.75;10.25;;;;;;;;3568285;39;113857;-81
2021/07/30 04:11:48;;;;;;;;;13.00;13.00;;;;;;;;3570984;39;112016;-81
2021/07/30 04:14:16;;;;;;;;;14.50;13.50;;;;;;;;3568884;39;112255;-81
2021/07/30 04:16:43;;;;;;;;;14.00;13.75;;;;;;;;3569952;39;113864;-79
2021/07/30 04:19:10;;;;;;;;;16.25;14.75;;;;;;;;3569310;39;112028;-79
2021/07/30 04:21:37;;;;;;;;;12.00;12.00;;;;;;;;3570687;39;113866;-81
2021/07/30 04:24:04;;;;;;;;;15.00;13.75;;;;;;;;3571070;39;113832;-81
2021/07/30 04:26:31;;;;;;;;;13.75;13.75;;;;;;;;3569147;39;113372;-80
2021/07/30 04:28:58;;;;;;;;;13.25;11.50;;;;;;;;3570445;39;113882;-81
2021/07/30 04:31:26;;;;;;;;;12.25;12.00;;;;;;;;3568856;39;113325;-80
2021/07/30 04:33:53;;;;;;;;;11.25;11.25;;;;;;;;3569434;39;113483;-80
2021/07/30 04:36:19;;;;;;;;;11.00;11.00;;;;;;;;3569179;39;114147;-80
2021/07/30 04:38:46;;;;;;;;;16.00;12.00;;;;;;;;3569815;39;112292;-80
2021/07/30 04:41:12;;;;;;;;;15.50;14.00;;;;;;;;3569467;39;113245;-80
2021/07/30 04:43:39;;;;;;;;;17.00;16.00;;;;;;;;3569996;39;113965;-80
2021/07/30 04:46:06;;;;;;;;;11.75;11.00;;;;;;;;3571796;39;111947;-79
2021/07/30 04:48:34;;;;;;;;;14.50;14.50;;;;;;;;3570104;39;114234;-78
2021/07/30 04:51:01;;;;;;;;;12.25;10.50;;;;;;;;3569075;39;111937;-78
2021/07/30 04:53:27;;;;;;;;;14.50;14.00;;;;;;;;3570401;39;113229;-78
2021/07/30 04:55:54;;;;;;;;;13.75;13.75;;;;;;;;3569045;39;113984;-82
2021/07/30 04:58:21;;;;;;;;;14.75;13.25;;;;;;;;3569691;39;111823;-82
2021/07/30 05:00:47;;;;;;;;;16.75;14.25;;;;;;;;3569874;39;113362;-83
2021/07/30 05:03:14;;;;;;;;;13.00;11.25;;;;;;;;3568580;39;113670;-81
2021/07/30 05:05:42;;;;;;;;;16.25;14.25;;;;;;;;3569684;39;111800;-81
2021/07/30 05:08:09;;;;;;;;;13.00;11.75;;;;;;;;3571200;39;113656;-80
2021/07/30 05:10:35;;;;;;;;;13.25;13.25;;;;;;;;3570712;39;111903;-83
2021/07/30 05:13:02;;;;;;;;;13.50;12.25;;;;;;;;3570820;39;113311;-81
2021/07/30 05:15:30;;;;;;;;;15.75;13.50;;;;;;;;3570094;39;113745;-82
2021/07/30 05:17:57;;;;;;;;;15.25;14.25;;;;;;;;3569094;39;113477;-78
2021/07/30 05:20:24;;;;;;;;;18.50;14.00;;;;;;;;3570039;39;113274;-81
2021/07/30 05:22:52;;;;;;;;;13.25;12.75;;;;;;;;3569126;39;114361;-80
2021/07/30 05:25:18;;;;;;;;;15.00;14.00;;;;;;;;3569845;39;113144;-79
2021/07/30 05:27:45;;;;;;;;;15.00;13.00;;;;;;;;3569938;39;113292;-79
2021/07/30 05:30:12;;;;;;;;;14.75;13.00;;;;;;;;3571165;39;114450;-81
2021/07/30 05:32:39;;;;;;;;;15.00;15.00;;;;;;;;3570219;39;113196;-80
2021/07/30 05:35:06;;;;;;;;;13.00;13.00;;;;;;;;3567861;39;113403;-83
2021/07/30 05:37:32;;;;;;;;;15.50;15.00;;;;;;;;3568253;39;111804;-73
2021/07/30 05:40:00;;;;;;;;;16.25;14.75;;;;;;;;3569562;39;113396;-72
2021/07/30 05:42:27;;;;;;;;;14.00;13.00;;;;;;;;3567980;39;114012;-73
2021/07/30 05:44:53;;;;;;;;;13.25;12.00;;;;;;;;3569209;39;111833;-73
2021/07/30 05:47:20;;;;;;;;;18.25;16.50;;;;;;;;3568546;39;113334;-73
2021/07/30 05:49:47;;;;;;;;;18.25;17.00;;;;;;;;3568321;39;113812;-72
2021/07/30 05:52:13;;;;;;;;;14.00;14.00;;;;;;;;3571976;39;113151;-72
2021/07/30 05:54:40;;;;;;;;;15.00;15.00;;;;;;;;3567922;39;114058;-73
2021/07/30 05:57:08;;;;;;;;;18.25;12.25;;;;;;;;3567733;39;112504;-73
2021/07/30 05:59:35;;;;;;;;;18.00;16.75;;;;;;;;3568281;39;113552;-73
2021/07/30 06:02:01;;;;;;;;;18.25;15.00;;;;;;;;3567812;39;114057;-74
2021/07/30 06:04:28;;;;;;;;;15.25;11.50;;;;;;;;3568758;39;112669;-73
2021/07/30 06:06:55;;;;;;;;;18.25;16.00;;;;;;;;3568175;39;113394;-73
2021/07/30 06:09:21;;;;;;;;;18.00;18.00;;;;;;;;3568304;39;114323;-72
2021/07/30 06:11:48;;;;;;;;;17.25;16.00;;;;;;;;3568158;39;112582;-73
2021/07/30 06:14:16;;;;;;;;;15.75;15.75;;;;;;;;3570433;39;113589;-72
2021/07/30 06:16:42;;;;;;;;;17.50;15.50;;;;;;;;3569469;39;111870;-72
2021/07/30 06:19:09;;;;;;;;;16.75;13.75;;;;;;;;3570683;39;113422;-73
2021/07/30 06:21:35;;;;;;;;;17.50;16.00;;;;;;;;3568167;39;113846;-72
2021/07/30 06:24:02;;;;;;;;;16.00;14.25;;;;;;;;3572564;39;112213;-73
2021/07/30 06:26:28;;;;;;;;;19.00;17.75;;;;;;;;3569993;39;113618;-73
2021/07/30 06:28:55;;;;;;;;;23.75;21.00;;;;;;;;3569763;39;113856;-73
2021/07/30 06:31:23;;;;;;;;;22.25;19.25;;;;;;;;3569534;39;111881;-71
2021/07/30 06:33:49;;;;;;;;;7.00;6.50;;;;;;;;3571850;39;113227;-74
2021/07/30 06:36:16;;;;;;;;;26.75;22.00;;;;;;;;3568652;39;112526;-72
2021/07/30 06:38:43;;;;;;;;;19.25;16.50;;;;;;;;3568309;39;113261;-71
2021/07/30 06:41:12;;;;;;;;;9.50;9.50;;;;;;;;3564893;39;113983;-71
2021/07/30 06:43:39;;;;;;;;;22.75;18.00;;;;;;;;3569216;39;111991;-74
2021/07/30 06:46:05;;;;;;;;;27.50;23.25;;;;;;;;3570956;39;113312;-73
2021/07/30 06:48:33;;;;;;;;;19.75;18.00;;;;;;;;3566309;39;114022;-73
2021/07/30 06:51:01;;;;;;;;;18.50;16.00;;;;;;;;3571403;39;111960;-71
2021/07/30 06:53:28;;;;;;;;;15.50;15.50;;;;;;;;3569234;39;113069;-71
2021/07/30 06:55:55;;;;;;;;;14.50;13.75;;;;;;;;3572072;39;113941;-72
2021/07/30 06:58:21;;;;;;;;;18.75;18.00;;;;;;;;3568332;39;113276;-73
2021/07/30 07:00:48;;;;;;;;;21.50;20.75;;;;;;;;3569042;39;114273;-72
2021/07/30 07:03:14;;;;;;;;;20.50;19.00;;;;;;;;3569023;39;111838;-72
2021/07/30 07:05:42;;;;;;;;;17.00;16.25;;;;;;;;3570132;39;113567;-74
2021/07/30 07:08:09;;;;;;;;;18.00;16.75;;;;;;;;3568467;39;114118;-75
2021/07/30 07:10:35;;;;;;;;;18.25;17.00;;;;;;;;3570534;39;111914;-74
2021/07/30 07:13:02;;;;;;;;;21.50;18.50;;;;;;;;3569031;39;113962;-77
2021/07/30 07:15:28;;;;;;;;;19.25;18.00;;;;;;;;3569987;39;113971;-75
2021/07/30 07:17:55;;;;;;;;;20.67;17.33;;;;;;;;3571321;39;111916;-73
2021/07/30 07:20:21;;;;;;;;;14.33;13.67;;;;;;;;3568791;39;114114;-75
2021/07/30 07:22:49;;;;;;;;;13.33;13.33;;;;;;;;3569495;39;111842;-75
2021/07/30 07:25:16;;;;;;;;;15.67;14.67;;;;;;;;3569654;39;113270;-77
2021/07/30 07:27:43;;;;;;;;;17.67;14.33;;;;;;;;3568571;39;113897;-76
2021/07/30 07:30:10;;;;;;;;;19.33;17.67;;;;;;;;3570121;39;112006;-76
2021/07/30 07:32:36;;;;;;;;;17.33;15.33;;;;;;;;3568703;39;113759;-76
2021/07/30 07:35:03;;;;;;;;;18.67;16.33;;;;;;;;3569845;39;113851;-77
2021/07/30 07:37:30;;;;;;;;;16.33;16.33;;;;;;;;3568360;39;112261;-76
2021/07/30 07:39:58;;;;;;;;;17.00;15.67;;;;;;;;3571613;39;113335;-77
2021/07/30 07:42:24;;;;;;;;;19.00;17.33;;;;;;;;3568266;39;112166;-77
2021/07/30 07:44:51;;;;;;;;;15.33;14.33;;;;;;;;3571051;39;113401;-76
2021/07/30 07:47:18;;;;;;;;;14.67;14.67;;;;;;;;3568827;39;113859;-79
2021/07/30 07:49:44;;;;;;;;;13.00;13.00;;;;;;;;3569782;39;112242;-78
2021/07/30 07:52:11;;;;;;;;;13.33;12.33;;;;;;;;3568957;39;113304;-80
2021/07/30 07:54:37;;;;;;;;;15.67;15.67;;;;;;;;3569928;39;113934;-79
2021/07/30 07:57:06;;;;;;;;;14.67;14.00;;;;;;;;3568320;39;112127;-80
2021/07/30 07:59:33;;;;;;;;;14.00;14.00;;;;;;;;3568679;39;113313;-80
2021/07/30 08:02:02;;;;;;;;;15.67;15.00;;;;;;;;3566373;39;113896;-80
2021/07/30 08:04:29;;;;;;;;;19.33;17.67;;;;;;;;3568436;39;114135;-77
2021/07/30 08:06:56;;;;;;;;;16.67;14.67;;;;;;;;3567570;39;114050;-78
2021/07/30 08:09:22;;;;;;;;;14.00;13.67;;;;;;;;3569808;39;112276;-79
2021/07/30 08:11:49;;;;;;;;;14.67;14.67;;;;;;;;3567576;39;113708;-79
2021/07/30 08:14:17;;;;;;;;;13.33;13.33;;;;;;;;3567284;39;113925;-79
2021/07/30 08:16:45;;;;;;;;;17.67;16.33;;;;;;;;3569202;39;112334;-78
2021/07/30 08:19:12;;;;;;;;;15.33;14.33;;;;;;;;3568260;39;113248;-79
2021/07/30 08:21:38;;;;;;;;;17.33;15.67;;;;;;;;3567209;39;112908;-79
2021/07/30 08:24:05;;;;;;;;;18.33;17.00;;;;;;;;3570562;39;112100;-81
2021/07/30 08:26:32;;;;;;;;;12.00;11.25;;;;;;;;3569660;39;114308;-82
2021/07/30 08:28:58;;;;;;;;;12.75;12.75;;;;;;;;3569040;39;112028;-80
2021/07/30 08:31:29;;;;;;;;;13.67;13.67;;;;;;;;3569627;39;114217;-79
2021/07/30 08:33:56;;;;;;;;;15.25;13.00;;;;;;;;3567617;39;114334;-78
2021/07/30 08:36:22;;;;;;;;;14.75;13.25;;;;;;;;3568347;39;112284;-77
2021/07/30 08:38:49;;;;;;;;;12.75;11.75;;;;;;;;3569133;39;113458;-81
2021/07/30 08:41:20;;;;;;;;;11.75;11.75;;;;;;;;3568950;39;114233;-82
2021/07/30 08:43:50;;;;;;;;;14.00;12.50;;;;;;;;3572423;39;112220;-77
2021/07/30 08:46:17;;;;;;;;;10.50;10.50;;;;;;;;3569616;39;113973;-77
2021/07/30 08:48:45;;;;;;;;;13.50;11.00;;;;;;;;3569329;39;111841;-78
2021/07/30 08:51:15;;;;;;;;;10.25;9.75;;;;;;;;3570266;39;113688;-77
2021/07/30 08:53:41;;;;;;;;;12.75;11.75;;;;;;;;3568873;39;113888;-79
2021/07/30 08:56:08;;;;;;;;;13.25;11.75;;;;;;;;3570501;39;111915;-78
2021/07/30 08:58:35;;;;;;;;;11.00;11.00;;;;;;;;3568755;39;113222;-77
2021/07/30 09:01:01;;;;;;;;;12.25;11.75;;;;;;;;3573295;39;114122;-78
2021/07/30 09:03:37;;;;;;;;;11.00;10.75;;;;;;;;3570347;39;112091;-78
2021/07/30 09:06:17;;;;;;;;;10.00;10.00;;;;;;;;3570711;39;113242;-77
2021/07/30 09:08:43;;;;;;;;;12.50;12.50;;;;;;;;3568931;39;111728;-77
2021/07/30 09:11:10;;;;;;;;;11.00;9.00;;;;;;;;3569896;39;113466;-77
2021/07/30 09:13:42;;;;;;;;;12.25;11.50;;;;;;;;3568027;39;114259;-81
2021/07/30 09:16:10;;;;;;;;;14.75;12.00;;;;;;;;3570187;39;111683;-79
2021/07/30 09:18:37;;;;;;;;;10.75;10.75;;;;;;;;3568609;39;113276;-84
2021/07/30 09:21:20;;;;;;;;;10.50;8.75;;;;;;;;3567919;39;114886;-83
2021/07/30 09:23:46;;;;;;;;;12.25;11.75;;;;;;;;3569259;39;112128;-81
2021/07/30 09:26:27;;;;;;;;;10.25;10.25;;;;;;;;3569550;39;113606;-81
2021/07/30 09:28:57;;;;;;;;;12.75;12.50;;;;;;;;3572593;39;113884;-82
2021/07/30 09:31:27;;;;;;;;;11.50;10.25;;;;;;;;3569808;39;113772;-80
2021/07/30 09:33:59;;;;;;;;;11.00;11.00;;;;;;;;3569828;39;114154;-81
2021/07/30 09:36:27;;;;;;;;;12.25;11.75;;;;;;;;3568589;39;111770;-79
2021/07/30 09:39:00;;;;;;;;;9.50;9.50;;;;;;;;3569628;39;113634;-79
2021/07/30 09:41:27;;;;;;;;;11.25;9.75;;;;;;;;3568211;39;113981;-79
2021/07/30 09:43:53;;;;;;;;;11.75;11.75;;;;;;;;3569541;39;111884;-80
2021/07/30 09:46:21;;;;;;;;;28.67;26.67;;;;;;;;3570458;39;113979;-79
2021/07/30 09:48:48;;;;;;;;;15.50;14.00;;;;;;;;3570635;39;113993;-78
2021/07/30 09:51:16;;;;;;;;;11.25;11.25;;;;;;;;3571089;39;112084;-78
2021/07/30 09:53:44;;;;;;;;;12.75;12.75;;;;;;;;3568483;39;113639;-78
2021/07/30 09:56:12;;;;;;;;;12.50;12.50;;;;;;;;3567548;39;113918;-78
2021/07/30 09:58:38;;;;;;;;;12.25;12.25;;;;;;;;3569968;39;113403;-78
2021/07/30 10:01:05;;;;;;;;;12.00;12.00;;;;;;;;3567786;39;113890;-79
2021/07/30 10:03:34;;;;;;;;;10.00;9.25;;;;;;;;3522657;39;111984;-83
2021/07/30 10:06:01;;;;;;;;;12.75;10.25;;;;;;;;3511096;39;113427;-80
2021/07/30 10:08:27;;;;;;;;;10.00;10.00;;;;;;;;3549136;39;113841;-79
2021/07/30 10:10:55;;;;;;;;;9.50;9.50;;;;;;;;3546786;39;112030;-82
2021/07/30 10:13:34;;;;;;;;;9.00;9.00;;;;;;;;3551014;39;112366;-81
2021/07/30 10:16:01;;;;;;;;;14.67;14.67;;;;;;;;3547349;39;112312;-76
2021/07/30 10:18:28;;;;;;;;;19.67;19.67;;;;;;;;3523822;39;113808;-74
2021/07/30 10:20:59;;;;;;;;;20.33;20.33;;;;;;;;3548143;39;114232;-74
2021/07/30 10:23:26;;;;;;;;;14.33;13.00;;;;;;;;3547365;39;112315;-75
2021/07/30 10:25:54;;;;;;;;;14.67;14.67;;;;;;;;3548266;39;113191;-73
2021/07/30 10:28:23;;;;;;;;;19.67;18.00;;;;;;;;3543520;39;112907;-74
2021/07/30 10:30:52;;;;;;;;;26.00;21.00;;;;;;;;3545781;39;112195;-74
2021/07/30 10:33:45;;;;;;;;;22.00;19.67;;;;;;;;3552102;39;113185;-79
2021/07/30 10:36:13;;;;;;;;;15.00;15.00;;;;;;;;3551037;39;112186;-79
2021/07/30 10:38:40;;;;;;;;;21.67;20.67;;;;;;;;3548645;39;113311;-77
2021/07/30 10:41:19;;;;;;;;;19.67;17.33;;;;;;;;3546556;39;114376;-75
2021/07/30 10:44:06;;;;;;;;;18.33;16.67;;;;;;;;3548160;39;112260;-75
2021/07/30 10:46:36;;;;;;;;;18.67;17.00;;;;;;;;3547092;39;113916;-75
2021/07/30 10:49:23;;;;;;;;;21.33;19.00;;;;;;;;3548370;39;113814;-75
2021/07/30 10:51:49;;;;;;;;;15.67;15.00;;;;;;;;3545802;39;111966;-76
2021/07/30 10:54:16;;;;;;;;;17.00;17.00;;;;;;;;3550355;39;113496;-75
2021/07/30 10:56:43;;;;;;;;;18.67;16.67;;;;;;;;3548313;39;113219;-75
2021/07/30 10:59:11;;;;;;;;;23.33;17.33;;;;;;;;3546443;39;112267;-71
2021/07/30 11:01:57;;;;;;;;;14.67;14.67;;;;;;;;3546607;39;113819;-72
2021/07/30 11:04:24;;;;;;;;;11.33;11.00;;;;;;;;3544417;39;111919;-73
2021/07/30 11:06:58;;;;;;;;;15.00;12.00;;;;;;;;3549530;39;113284;-74
2021/07/30 11:09:37;;;;;;;;;12.00;11.00;;;;;;;;3548900;39;113010;-74
2021/07/30 11:12:04;;;;;;;;;11.00;11.00;;;;;;;;3549244;39;113861;-75
2021/07/30 11:14:34;;;;;;;;;17.00;16.00;;;;;;;;3550929;39;112876;-75
2021/07/30 11:17:02;;;;;;;;;13.00;11.33;;;;;;;;3549635;39;113867;-74
2021/07/30 11:19:29;;;;;;;;;11.67;11.33;;;;;;;;3550277;39;112152;-72
2021/07/30 11:21:57;;;;;;;;;16.00;14.00;;;;;;;;3542972;39;112905;-73
2021/07/30 11:24:24;;;;;;;;;12.33;12.33;;;;;;;;3549617;39;111864;-83
2021/07/30 11:26:50;;;;;;;;;11.00;11.00;;;;;;;;3549891;39;113295;-81
2021/07/30 11:29:18;;;;;;;;;12.67;12.00;;;;;;;;3462824;39;113959;-83
2021/07/30 11:31:53;;;;;;;;;11.67;11.00;;;;;;;;3525503;39;112035;-83
2021/07/30 11:34:20;;;;;;;;;8.33;8.33;;;;;;;;3546975;39;113293;-81
2021/07/30 11:36:50;;;;;;;;;10.67;10.67;;;;;;;;3546939;39;114150;-84
2021/07/30 11:39:17;;;;;;;;;13.00;12.00;;;;;;;;3546157;39;111786;-84
2021/07/30 11:41:52;;;;;;;;;13.33;13.00;;;;;;;;3533314;39;113370;-79
2021/07/30 11:44:18;;;;;;;;;12.33;11.33;;;;;;;;3526057;39;112695;-81
2021/07/30 11:46:56;;;;;;;;;14.33;13.00;;;;;;;;3546247;39;113419;-80
2021/07/30 11:49:30;;;;;;;;;12.67;11.33;;;;;;;;3543784;39;114453;-84
2021/07/30 11:51:57;;;;;;;;;11.33;11.00;;;;;;;;3544556;39;111926;-80
2021/07/30 11:54:24;;;;;;;;;13.67;11.67;;;;;;;;3545683;39;113248;-82
2021/07/30 11:56:51;;;;;;;;;12.67;12.67;;;;;;;;3543616;39;113973;-79
2021/07/30 11:59:18;;;;;;;;;13.33;13.33;;;;;;;;3544047;39;112562;-79
2021/07/30 12:01:59;;;;;;;;;13.33;11.00;;;;;;;;3544261;39;113591;-84
2021/07/30 12:04:27;;;;;;;;;16.33;12.67;;;;;;;;3546468;39;113963;-82
2021/07/30 12:06:55;;;;;;;;;15.00;11.33;;;;;;;;3544448;39;113693;-83
2021/07/30 12:09:22;;;;;;;;;14.00;12.67;;;;;;;;3543737;39;114034;-81
2021/07/30 12:11:52;;;;;;;;;13.00;13.00;;;;;;;;3544083;39;112111;-82
2021/07/30 12:14:19;;;;;;;;;21.33;19.33;;;;;;;;3543946;39;113257;-78
2021/07/30 12:16:46;;;;;;;;;20.33;20.00;;;;;;;;3543167;39;113992;-77
2021/07/30 12:19:12;;;;;;;;;13.00;12.67;;;;;;;;3543732;39;112015;-78
2021/07/30 12:24:46;;;;;;;;;23.33;21.67;;;;;;;;3515437;39;1477659;-80
2021/07/30 12:27:17;;;;;;;;;18.33;18.33;;;;;;;;3575329;39;114047;-80
2021/07/30 12:29:45;;;;;;;;;14.00;14.00;;;;;;;;3577185;39;111848;-78
2021/07/30 12:32:12;;;;;;;;;15.33;15.00;;;;;;;;3574111;39;113306;-74
2021/07/30 12:34:39;;;;;;;;;16.00;14.67;;;;;;;;3574483;39;113833;-76
2021/07/30 12:37:09;;;;;;;;;20.67;17.67;;;;;;;;3578502;39;112012;-76
2021/07/30 12:39:46;;;;;;;;;19.00;18.00;;;;;;;;3555159;39;112973;-75
2021/07/30 12:42:19;;;;;;;;;20.33;19.67;;;;;;;;3556218;39;114917;-77
2021/07/30 12:45:02;;;;;;;;;17.33;16.67;;;;;;;;3558728;39;111926;-76
2021/07/30 12:47:29;;;;;;;;;14.67;14.67;;;;;;;;3555965;39;112911;-76
2021/07/30 12:49:56;;;;;;;;;16.67;14.67;;;;;;;;3557405;39;112122;-78
2021/07/30 12:52:23;;;;;;;;;15.33;14.00;;;;;;;;3560713;39;113197;-76
2021/07/30 12:55:03;;;;;;;;;16.67;16.67;;;;;;;;3560598;39;113922;-75
2021/07/30 12:57:32;;;;;;;;;20.00;19.67;;;;;;;;3537569;39;112568;-74
2021/07/30 13:00:02;;;;;;;;;18.67;16.67;;;;;;;;3555809;39;113409;-75
2021/07/30 13:02:36;;;;;;;;;17.33;16.67;;;;;;;;3558722;39;114873;-77
2021/07/30 13:05:04;;;;;;;;;15.33;13.67;;;;;;;;3556546;39;111936;-75
2021/07/30 13:07:32;;;;;;;;;16.33;15.33;;;;;;;;3557765;39;113425;-75
2021/07/30 13:10:00;;;;;;;;;20.00;18.00;;;;;;;;3557884;39;112931;-75
2021/07/30 13:12:27;;;;;;;;;14.00;13.33;;;;;;;;3507098;39;113571;-75
2021/07/30 13:14:53;;;;;;;;;11.00;11.00;;;;;;;;3558626;39;113030;-75
2021/07/30 13:17:20;;;;;;;;;12.67;12.67;;;;;;;;3555005;39;112400;-77
2021/07/30 13:19:47;;;;;;;;;16.00;15.00;;;;;;;;3559732;39;113707;-76
2021/07/30 13:22:13;;;;;;;;;16.00;14.67;;;;;;;;3531812;39;113961;-77
2021/07/30 13:24:40;;;;;;;;;15.33;15.33;;;;;;;;3550462;39;111990;-76
2021/07/30 13:27:08;;;;;;;;;20.33;17.00;;;;;;;;3550724;39;113346;-78
2021/07/30 13:29:36;;;;;;;;;13.00;13.00;;;;;;;;3553268;39;113899;-78
2021/07/30 13:32:03;;;;;;;;;14.67;14.67;;;;;;;;3551296;39;113234;-78
2021/07/30 13:34:30;;;;;;;;;17.00;16.00;;;;;;;;3542099;39;115034;-79
2021/07/30 13:36:56;;;;;;;;;19.33;17.67;;;;;;;;3544259;39;112096;-78
2021/07/30 13:39:23;;;;;;;;;16.67;15.67;;;;;;;;3544433;39;113297;-78
2021/07/30 13:41:49;;;;;;;;;18.00;16.00;;;;;;;;3540171;39;113022;-78
2021/07/30 13:44:21;;;;;;;;;18.67;17.00;;;;;;;;3543142;39;112071;-77
2021/07/30 13:46:48;;;;;;;;;15.00;15.00;;;;;;;;3544456;39;112238;-76
2021/07/30 13:49:14;;;;;;;;;20.67;19.00;;;;;;;;3543438;39;113992;-77
2021/07/30 13:51:41;;;;;;;;;15.00;15.00;;;;;;;;3545262;39;112014;-84
2021/07/30 13:54:07;;;;;;;;;15.67;14.00;;;;;;;;3544879;39;114051;-84
2021/07/30 13:56:34;;;;;;;;;14.67;13.67;;;;;;;;3544758;39;111914;-84
2021/07/30 13:59:00;;;;;;;;;14.33;14.00;;;;;;;;3544906;39;113660;-85
2021/07/30 14:01:28;;;;;;;;;15.33;13.33;;;;;;;;3544072;39;113884;-86
2021/07/30 14:03:55;;;;;;;;;12.33;12.33;;;;;;;;3546275;39;111922;-87
2021/07/30 14:06:21;;;;;;;;;12.00;11.67;;;;;;;;3546402;39;113393;-85
2021/07/30 14:08:48;;;;;;;;;14.00;12.67;;;;;;;;3545549;39;113783;-85
2021/07/30 14:11:15;;;;;;;;;12.33;12.33;;;;;;;;3548210;39;111978;-85
2021/07/30 14:13:42;;;;;;;;;13.33;13.33;;;;;;;;3548474;39;113375;-85